»·PEaware :: N448RA KSBD-KBFL

N448RA :: KSBD-KBFL

FLIGHT INFORMATION

Flight Status: Arrived
Operator: Privately registered:
United States
More flights under this callsign
Pilot: Scott M. (16181)
Aircraft: Unknown
(DA62)
More flights by this aircraft type
Origin: KSBD San Bernardino Intl
United States
Destination: KBFL Meadows
United States
More flights between these airports :: More routes between these airports
Route: +
File this flight plan on PilotEdge
Remarks:
Altitude:
(Current/Filed)
8,500ft
Speed:
(Current/Filed)
160kts
Departed: 26-Sep-18 06:04 PM
Arrived: 26-Sep-18 07:03 PM
Distance/Time
Traveled:
120nm/0:59
Distance/Time
To Go:
Arrived

Flight Plot

Page will automatically refresh every two minutes.


Map Options




Map Legend


Flown Route
Filed Route
Departure Airport
Arrival Airport
Navaid (VOR, NDB)
Fix

Horizontal Profiles

Position Reports

Time Latitude Longitude Heading Altitude Ground
Speed
26-Sep-18 17:51 34.102166 -117.224730 94 1146ft 0kts
26-Sep-18 17:52 34.102166 -117.224730 94 1146ft 0kts
26-Sep-18 17:53 34.102166 -117.224730 94 1146ft 0kts
26-Sep-18 17:54 34.102166 -117.224730 94 1146ft 0kts
26-Sep-18 17:55 34.102166 -117.224730 94 1146ft 0kts
26-Sep-18 17:56 34.102166 -117.224730 94 1146ft 0kts
26-Sep-18 17:57 34.102166 -117.224730 94 1146ft 0kts
26-Sep-18 17:58 34.102166 -117.224730 94 1146ft 0kts
26-Sep-18 17:59 34.102166 -117.224730 94 1146ft 0kts
26-Sep-18 18:00 34.102166 -117.224730 94 1146ft 0kts
26-Sep-18 18:01 34.100740 -117.225378 246 1144ft 0kts
26-Sep-18 18:02 34.100382 -117.226503 249 1140ft 14kts
26-Sep-18 18:03 34.100587 -117.223293 70 1149ft 20kts
26-Sep-18 18:04 34.100829 -117.219776 162 1159ft 0kts
26-Sep-18 18:05 34.100829 -117.219776 162 1159ft 0kts
26-Sep-18 18:06 34.098938 -117.222475 253 1150ft 52kts
26-Sep-18 18:07 34.092079 -117.247858 251 1782ft 93kts
26-Sep-18 18:08 34.107832 -117.270122 357 2705ft 126kts
26-Sep-18 18:09 34.138401 -117.284163 312 3594ft 117kts
26-Sep-18 18:10 34.150101 -117.318900 293 4474ft 114kts
26-Sep-18 18:11 34.158238 -117.353442 309 5133ft 128kts
26-Sep-18 18:12 34.180425 -117.375343 326 5349ft 144kts
26-Sep-18 18:13 34.218994 -117.381983 352 6032ft 138kts
26-Sep-18 18:14 34.251836 -117.384590 353 6636ft 135kts
26-Sep-18 18:15 34.287502 -117.394598 320 6867ft 150kts
26-Sep-18 18:16 34.323055 -117.419366 333 6811ft 141kts
26-Sep-18 18:17 34.347965 -117.453570 297 7507ft 143kts
26-Sep-18 18:18 34.362971 -117.498156 296 8210ft 143kts
26-Sep-18 18:19 34.378466 -117.544956 296 8510ft 159kts
26-Sep-18 18:20 34.393210 -117.589671 295 8515ft 165kts
26-Sep-18 18:21 34.410367 -117.641762 295 8507ft 168kts
26-Sep-18 18:22 34.427215 -117.693102 295 8489ft 167kts
26-Sep-18 18:23 34.444347 -117.745379 295 8477ft 167kts
26-Sep-18 18:24 34.461470 -117.797618 294 8469ft 166kts
26-Sep-18 18:25 34.478552 -117.849806 294 8466ft 166kts
26-Sep-18 18:26 34.495611 -117.902011 294 8482ft 167kts
26-Sep-18 18:27 34.512749 -117.954546 294 8496ft 171kts
26-Sep-18 18:28 34.530510 -118.009103 294 8503ft 175kts
26-Sep-18 18:29 34.548382 -118.064117 293 8508ft 176kts
26-Sep-18 18:30 34.566441 -118.119826 294 8506ft 177kts
26-Sep-18 18:31 34.584481 -118.175543 294 8502ft 178kts
26-Sep-18 18:32 34.602611 -118.231633 294 8498ft 178kts
26-Sep-18 18:33 34.620748 -118.287849 294 8494ft 179kts
26-Sep-18 18:34 34.638928 -118.344290 294 8489ft 180kts
26-Sep-18 18:35 34.657176 -118.401055 294 8486ft 180kts
26-Sep-18 18:36 34.675480 -118.458107 294 8485ft 181kts
26-Sep-18 18:37 34.693697 -118.515011 294 8486ft 181kts
26-Sep-18 18:38 34.711891 -118.571956 294 8491ft 180kts
26-Sep-18 18:39 34.729925 -118.628507 294 8299ft 175kts
26-Sep-18 18:40 34.744072 -118.672914 294 7822ft 169kts
26-Sep-18 18:41 34.760780 -118.725451 294 7110ft 163kts
26-Sep-18 18:42 34.776722 -118.775726 294 6605ft 150kts
26-Sep-18 18:43 34.792463 -118.825326 294 6604ft 163kts
26-Sep-18 18:44 34.821905 -118.855366 6 6571ft 154kts
26-Sep-18 18:45 34.862980 -118.847100 9 6592ft 150kts
26-Sep-18 18:46 34.904024 -118.837520 9 5887ft 151kts
26-Sep-18 18:47 34.944930 -118.827750 8 5174ft 148kts
26-Sep-18 18:48 34.984677 -118.818198 8 4688ft 136kts
26-Sep-18 18:49 35.021596 -118.809284 7 4701ft 138kts
26-Sep-18 18:50 35.059902 -118.800054 7 4690ft 143kts
26-Sep-18 18:51 35.099287 -118.790563 7 4641ft 145kts
26-Sep-18 18:52 35.137963 -118.781240 7 4598ft 146kts
26-Sep-18 18:53 35.177909 -118.771595 7 4556ft 147kts
26-Sep-18 18:54 35.212051 -118.790074 315 4351ft 141kts
26-Sep-18 18:55 35.239988 -118.823300 314 4054ft 139kts
26-Sep-18 18:56 35.267019 -118.856096 313 3666ft 133kts
26-Sep-18 18:57 35.293049 -118.887696 313 3258ft 131kts
26-Sep-18 18:58 35.318759 -118.918687 313 2720ft 126kts
26-Sep-18 18:59 35.341614 -118.946220 313 2274ft 108kts
26-Sep-18 19:00 35.360521 -118.968902 313 1923ft 85kts
26-Sep-18 19:01 35.377781 -118.988609 312 1827ft 85kts
26-Sep-18 19:02 35.393721 -119.008327 312 1686ft 77kts
26-Sep-18 19:03 35.409578 -119.026956 313 1171ft 81kts
26-Sep-18 19:04 35.425535 -119.046090 313 674ft 76kts
26-Sep-18 19:05 35.436361 -119.057830 93 492ft 0kts
26-Sep-18 19:06 35.436356 -119.057587 88 493ft 6kts
26-Sep-18 19:07 35.432889 -119.052821 134 493ft 23kts
26-Sep-18 19:08 35.431276 -119.048368 41 497ft 6kts
26-Sep-18 19:09 35.431405 -119.048081 206 498ft 0kts
26-Sep-18 19:10 35.431405 -119.048081 206 498ft 0kts

Navigation Log

Ident Type
1. KSBD Airport
2. KBFL Airport